Time;durP1;ratioP1;P1;durP2;ratioP2;P2;SDS_P1;SDS_P2;PMS_P1;PMS_P2;Temp;Humidity;BMP_temperature;BMP_pressure;BME280_temperature;BME280_humidity;BME280_pressure;Samples;Min_cycle;Max_cycle;Signal;HPM_P1;HPM_P2
2022/09/22 00:00:42;;;;;;;3.70;3.42;;;;;;;10.22;64.05;95119.72;5095362;28;20185;-69
2022/09/22 00:03:09;;;;;;;3.88;3.58;;;;;;;10.25;64.09;95126.50;5111946;28;20228;-69
2022/09/22 00:05:35;;;;;;;3.92;3.63;;;;;;;10.24;64.63;95122.94;5111473;28;20225;-69
2022/09/22 00:08:02;;;;;;;3.92;3.63;;;;;;;10.22;64.53;95116.97;5094480;28;20204;-69
2022/09/22 00:10:29;;;;;;;4.00;3.60;;;;;;;10.21;64.51;95120.88;5094561;28;20196;-69
2022/09/22 00:12:57;;;;;;;3.45;3.25;;;;;;;10.17;64.59;95120.00;5095552;28;20211;-69
2022/09/22 00:15:24;;;;;;;3.40;3.20;;;;;;;10.14;64.82;95117.94;5095183;28;20192;-69
2022/09/22 00:17:51;;;;;;;3.90;3.60;;;;;;;10.12;64.53;95118.25;5111637;28;20204;-69
2022/09/22 00:20:17;;;;;;;3.83;3.60;;;;;;;10.12;64.78;95111.94;5095500;28;20189;-69
2022/09/22 00:22:44;;;;;;;3.53;3.33;;;;;;;10.12;64.60;95117.47;5095388;28;20196;-69
2022/09/22 00:25:11;;;;;;;3.45;3.25;;;;;;;10.10;64.56;95115.06;5111648;28;20196;-69
2022/09/22 00:27:38;;;;;;;3.35;3.15;;;;;;;10.09;64.62;95112.63;5095411;28;20185;-69
2022/09/22 00:30:08;;;;;;;3.63;3.33;;;;;;;10.07;64.20;95114.97;5123629;28;20242;-69
2022/09/22 00:32:38;;;;;;;3.65;3.30;;;;;;;10.06;64.19;95114.16;5114464;28;20208;-69
2022/09/22 00:35:06;;;;;;;2.95;2.75;;;;;;;10.04;64.30;95112.91;5114442;28;20210;-69
2022/09/22 00:37:33;;;;;;;3.38;3.17;;;;;;;10.04;64.46;95115.66;5115327;28;20195;-69
2022/09/22 00:40:00;;;;;;;3.28;2.97;;;;;;;10.06;64.64;95116.13;5114790;28;20192;-68
2022/09/22 00:42:27;;;;;;;3.33;3.13;;;;;;;10.06;64.63;95119.66;5131663;28;20199;-69
2022/09/22 00:44:54;;;;;;;2.95;2.78;;;;;;;10.04;64.50;95118.41;5114861;28;20567;-69
2022/09/22 00:47:34;;;;;;;3.30;3.10;;;;;;;10.05;64.09;95117.25;5115316;28;20180;-69
2022/09/22 00:50:09;;;;;;;3.20;3.00;;;;;;;10.04;64.51;95129.44;5131898;27;20199;-69
2022/09/22 00:52:39;;;;;;;3.08;2.92;;;;;;;10.03;64.32;95125.88;5119053;28;20215;-69
2022/09/22 00:55:11;;;;;;;3.20;3.00;;;;;;;10.05;63.96;95109.78;5119851;28;20192;-69
2022/09/22 00:57:38;;;;;;;2.95;2.75;;;;;;;10.06;63.99;95113.34;5118603;28;20199;-69
2022/09/22 01:00:08;;;;;;;3.13;2.92;;;;;;;10.06;64.20;95113.34;5118711;28;20211;-69
2022/09/22 01:02:37;;;;;;;3.35;3.15;;;;;;;10.05;64.15;95107.03;5119437;28;20194;-69
2022/09/22 01:05:04;;;;;;;3.00;2.80;;;;;;;10.06;64.45;95102.34;5118653;28;20259;-69
2022/09/22 01:07:31;;;;;;;3.17;2.97;;;;;;;10.09;64.07;95109.88;5119366;28;20176;-69
2022/09/22 01:09:58;;;;;;;3.60;3.30;;;;;;;10.08;64.41;95098.06;5119139;28;20535;-69
2022/09/22 01:12:26;;;;;;;3.45;3.15;;;;;;;10.06;64.38;95102.34;5118265;28;20221;-69
2022/09/22 01:15:13;;;;;;;3.10;2.90;;;;;;;10.00;64.63;95098.22;5135622;27;20192;-69
2022/09/22 01:17:50;;;;;;;3.08;2.88;;;;;;;9.99;64.65;95102.91;5116234;28;20226;-69
2022/09/22 01:20:41;;;;;;;3.30;3.10;;;;;;;9.99;64.71;95108.44;5119119;28;20190;-68
2022/09/22 01:23:37;;;;;;;3.40;3.20;;;;;;;9.98;64.74;95092.22;5119143;28;20191;-69
2022/09/22 01:26:26;;;;;;;2.90;2.63;;;;;;;9.95;64.45;95098.44;5133790;27;20218;-68
2022/09/22 01:29:18;;;;;;;3.10;2.90;;;;;;;9.94;64.78;95096.84;5118690;28;20242;-69
2022/09/22 01:31:50;;;;;;;3.13;2.92;;;;;;;9.93;64.60;95100.75;5117645;28;20216;-69
2022/09/22 01:34:21;;;;;;;3.20;3.00;;;;;;;9.91;64.76;95094.78;5118079;28;20192;-69
2022/09/22 01:36:55;;;;;;;3.08;2.88;;;;;;;9.92;64.64;95094.44;5118086;28;20244;-69
2022/09/22 01:39:26;;;;;;;2.90;2.70;;;;;;;9.88;64.81;95090.78;5117762;28;20207;-69
2022/09/22 01:41:57;;;;;;;3.00;2.75;;;;;;;9.84;65.01;95095.34;5117896;28;20188;-69
2022/09/22 01:44:28;;;;;;;3.10;2.90;;;;;;;9.83;64.67;95082.75;5118287;28;20623;-69
2022/09/22 01:47:01;;;;;;;3.03;2.83;;;;;;;9.82;64.84;95090.22;5117702;28;20541;-69
2022/09/22 01:49:30;;;;;;;3.03;2.83;;;;;;;9.78;65.18;95089.31;5118601;28;20194;-69
2022/09/22 01:51:59;;;;;;;2.90;2.70;;;;;;;9.78;65.12;95096.75;5117580;28;20212;-69
2022/09/22 01:54:31;;;;;;;3.10;2.90;;;;;;;9.76;65.24;95088.03;5118101;28;20605;-69
2022/09/22 01:57:02;;;;;;;2.85;2.65;;;;;;;9.73;64.94;95088.72;5118444;28;20184;-68
2022/09/22 01:59:30;;;;;;;2.83;2.70;;;;;;;9.75;64.96;95086.44;5117286;28;20218;-68
2022/09/22 02:02:02;;;;;;;3.38;3.17;;;;;;;9.75;65.08;95090.00;5117625;28;20177;-68
2022/09/22 02:04:34;;;;;;;3.40;3.20;;;;;;;9.77;64.84;95089.66;5118281;28;20187;-68
2022/09/22 02:07:03;;;;;;;3.00;2.80;;;;;;;9.76;64.78;95085.28;5117847;28;20199;-69
2022/09/22 02:09:33;;;;;;;3.33;2.97;;;;;;;9.77;64.74;95090.47;5118234;28;20222;-69
2022/09/22 02:12:02;;;;;;;3.10;2.90;;;;;;;9.77;65.11;95095.97;5117060;28;20226;-69
2022/09/22 02:14:29;;;;;;;3.63;3.33;;;;;;;9.74;65.17;95088.41;5134209;27;20195;-69
2022/09/22 02:16:56;;;;;;;3.53;3.20;;;;;;;9.73;65.06;95083.22;5134892;27;20203;-68
2022/09/22 02:19:28;;;;;;;3.30;3.10;;;;;;;9.74;65.38;95087.59;5118175;28;20198;-68
2022/09/22 02:21:55;;;;;;;2.90;2.70;;;;;;;9.75;65.04;95086.44;5117059;28;20265;-68
2022/09/22 02:24:30;;;;;;;3.47;3.28;;;;;;;9.73;65.09;95083.22;5117100;28;20194;-69
2022/09/22 02:26:58;;;;;;;3.50;3.30;;;;;;;9.72;65.22;95087.94;5116726;28;20212;-69
2022/09/22 02:29:26;;;;;;;3.50;3.30;;;;;;;9.67;65.45;95085.41;5117286;28;20251;-69
2022/09/22 02:31:53;;;;;;;4.40;3.47;;;;;;;9.66;65.29;95081.06;5117516;28;20196;-69
2022/09/22 02:34:21;;;;;;;3.42;3.22;;;;;;;9.66;65.47;95086.56;5116603;28;20208;-70
2022/09/22 02:36:56;;;;;;;3.38;3.17;;;;;;;9.65;65.51;95082.19;5117367;28;20192;-69
2022/09/22 02:39:27;;;;;;;4.10;3.80;;;;;;;9.60;65.80;95076.94;5117051;28;20206;-69
2022/09/22 02:42:02;;;;;;;3.90;3.60;;;;;;;9.58;65.82;95085.53;5117567;28;20191;-69
2022/09/22 02:44:31;;;;;;;3.80;3.60;;;;;;;9.57;65.92;95080.38;5117440;28;20188;-69
2022/09/22 02:47:02;;;;;;;4.10;3.78;;;;;;;9.55;65.98;95085.41;5116513;28;20268;-69
2022/09/22 02:49:29;;;;;;;3.78;3.47;;;;;;;9.53;66.03;95099.53;5133798;27;20256;-70
2022/09/22 02:51:58;;;;;;;4.53;4.10;;;;;;;9.50;66.44;95094.72;5116489;28;20200;-70
2022/09/22 02:54:25;;;;;;;4.53;4.22;;;;;;;9.51;66.38;95095.53;5116334;28;20203;-69
2022/09/22 02:56:52;;;;;;;4.32;4.03;;;;;;;9.52;66.51;95094.41;5116297;28;20192;-69
2022/09/22 02:59:19;;;;;;;4.63;4.32;;;;;;;9.50;66.58;95097.47;5117193;28;20188;-69
2022/09/22 03:01:47;;;;;;;4.70;4.40;;;;;;;9.50;66.65;95093.91;5117224;28;20180;-69
2022/09/22 03:04:14;;;;;;;5.63;4.65;;;;;;;9.51;66.69;95103.78;5117034;28;20199;-69
2022/09/22 03:06:40;;;;;;;4.57;4.28;;;;;;;9.49;66.91;95100.59;5117094;28;20245;-69
2022/09/22 03:09:09;;;;;;;4.53;4.13;;;;;;;9.51;66.96;95101.03;5117089;28;20198;-68
2022/09/22 03:11:35;;;;;;;5.10;4.70;;;;;;;9.48;67.07;95102.53;5133216;27;20203;-69
2022/09/22 03:14:02;;;;;;;4.60;4.30;;;;;;;9.47;67.42;95102.88;5115220;28;20219;-69
2022/09/22 03:16:29;;;;;;;4.60;4.30;;;;;;;9.45;67.51;95105.97;5116585;28;20234;-69
2022/09/22 03:18:56;;;;;;;4.60;4.30;;;;;;;9.45;67.42;95096.91;5116454;28;20191;-69
2022/09/22 03:21:22;;;;;;;4.32;4.03;;;;;;;9.44;67.70;95100.81;5116459;28;20191;-69
2022/09/22 03:23:51;;;;;;;4.90;4.60;;;;;;;9.42;67.55;95101.16;5115838;28;20188;-69
2022/09/22 03:26:19;;;;;;;4.07;3.88;;;;;;;9.42;67.60;95100.34;5116627;28;20217;-70
2022/09/22 03:28:46;;;;;;;4.78;4.47;;;;;;;9.44;67.68;95112.63;5115739;28;20196;-70
2022/09/22 03:31:12;;;;;;;4.30;4.00;;;;;;;9.45;67.19;95107.94;5116143;28;20679;-70
2022/09/22 03:33:39;;;;;;;4.82;4.50;;;;;;;9.47;67.32;95105.63;5115884;28;20219;-70
2022/09/22 03:36:06;;;;;;;4.45;4.15;;;;;;;9.48;67.42;95107.25;5115772;28;20207;-70
2022/09/22 03:38:35;;;;;;;4.65;4.35;;;;;;;9.47;67.55;95100.13;5116460;28;20184;-69
2022/09/22 03:41:01;;;;;;;4.57;4.28;;;;;;;9.39;68.02;95104.59;5116565;28;20184;-69
2022/09/22 03:43:30;;;;;;;4.78;4.47;;;;;;;9.39;67.95;95107.34;5115625;28;20207;-70
2022/09/22 03:45:58;;;;;;;4.95;4.65;;;;;;;9.40;67.87;95101.50;5115185;28;20521;-70
2022/09/22 03:48:25;;;;;;;4.65;4.35;;;;;;;9.42;67.97;95105.88;5115391;28;20600;-70
2022/09/22 03:50:52;;;;;;;4.60;4.30;;;;;;;9.44;67.92;95107.13;5116464;28;20187;-70
2022/09/22 03:53:19;;;;;;;4.97;4.57;;;;;;;9.46;67.74;95106.78;5115219;28;20601;-69
2022/09/22 03:55:46;;;;;;;4.90;4.50;;;;;;;9.47;67.70;95100.13;5115289;28;20261;-69
2022/09/22 03:58:13;;;;;;;4.97;4.50;;;;;;;9.48;67.68;95107.25;5115865;28;20542;-69
2022/09/22 04:00:42;;;;;;;5.07;4.72;;;;;;;9.47;67.71;95105.63;5116280;28;20209;-69
2022/09/22 04:03:08;;;;;;;5.05;4.63;;;;;;;9.48;67.89;95110.81;5116128;28;20192;-70
2022/09/22 04:05:36;;;;;;;5.00;4.60;;;;;;;9.49;67.84;95115.16;5116063;28;20180;-69
2022/09/22 04:08:03;;;;;;;4.78;4.47;;;;;;;9.49;67.74;95114.34;5115982;28;20626;-69
2022/09/22 04:10:30;;;;;;;4.63;4.30;;;;;;;9.50;67.80;95114.00;5114691;28;20200;-69
2022/09/22 04:12:56;;;;;;;5.25;4.85;;;;;;;9.55;67.70;95111.03;5115628;28;20247;-69
2022/09/22 04:15:23;;;;;;;5.00;4.60;;;;;;;9.60;67.71;95118.25;5115319;28;20547;-69
2022/09/22 04:17:51;;;;;;;5.20;4.80;;;;;;;9.59;67.58;95113.88;5115631;28;20603;-69
2022/09/22 04:20:18;;;;;;;5.22;4.82;;;;;;;9.58;67.59;95115.03;5114513;28;20550;-69
2022/09/22 04:22:45;;;;;;;5.70;5.30;;;;;;;9.55;67.45;95116.53;5115776;28;20179;-69
2022/09/22 04:25:12;;;;;;;5.55;5.15;;;;;;;9.53;67.79;95115.25;5115308;28;20176;-69
2022/09/22 04:27:39;;;;;;;5.50;5.00;;;;;;;9.52;67.71;95114.47;5114825;28;20553;-69
2022/09/22 04:30:07;;;;;;;5.38;4.97;;;;;;;9.55;67.72;95112.94;5114301;28;20240;-70
2022/09/22 04:32:34;;;;;;;4.60;4.30;;;;;;;9.57;67.59;95108.72;5115251;28;20196;-69
2022/09/22 04:35:02;;;;;;;5.90;5.50;;;;;;;9.59;67.51;95111.94;5114700;28;20199;-69
2022/09/22 04:37:30;;;;;;;5.00;4.60;;;;;;;9.61;67.71;95115.13;5115120;28;20202;-69
2022/09/22 04:39:58;;;;;;;4.90;4.50;;;;;;;9.60;67.77;95116.28;5114869;28;20201;-69
2022/09/22 04:42:25;;;;;;;5.43;5.03;;;;;;;9.63;67.66;95118.34;5114360;28;20192;-68
2022/09/22 04:44:55;;;;;;;4.65;4.35;;;;;;;9.64;67.66;95119.94;5115390;28;20207;-69
2022/09/22 04:47:22;;;;;;;5.45;5.00;;;;;;;9.70;67.55;95125.25;5115550;28;20200;-69
2022/09/22 04:49:49;;;;;;;5.88;5.47;;;;;;;9.70;67.53;95120.53;5114582;28;20263;-69
2022/09/22 04:52:17;;;;;;;5.55;5.15;;;;;;;9.69;67.46;95124.41;5114630;28;20211;-69
2022/09/22 04:54:44;;;;;;;5.70;5.30;;;;;;;9.67;67.68;95121.22;5114950;28;20597;-69
2022/09/22 04:57:11;;;;;;;5.55;5.20;;;;;;;9.65;67.62;95126.25;5114620;28;20196;-69
2022/09/22 04:59:38;;;;;;;5.45;5.05;;;;;;;9.65;67.76;95115.25;5116071;28;20615;-70
2022/09/22 05:02:05;;;;;;;5.97;5.57;;;;;;;9.67;67.90;95126.72;5115841;28;20518;-69
2022/09/22 05:04:31;;;;;;;5.05;4.57;;;;;;;9.71;68.05;95119.38;5114803;28;20198;-69
2022/09/22 05:06:58;;;;;;;4.97;4.68;;;;;;;9.82;67.80;95117.75;5114575;28;20192;-69
2022/09/22 05:09:27;;;;;;;5.30;4.90;;;;;;;9.86;67.61;95120.63;5115629;28;20180;-69
2022/09/22 05:11:59;;;;;;;6.90;6.30;;;;;;;9.83;67.71;95122.09;5115600;28;20253;-69
2022/09/22 05:14:26;;;;;;;6.40;5.90;;;;;;;9.81;67.66;95118.13;5114968;28;20219;-69
2022/09/22 05:16:53;;;;;;;5.43;5.03;;;;;;;9.79;67.89;95117.66;5114358;28;20192;-69
2022/09/22 05:19:20;;;;;;;5.70;5.30;;;;;;;9.79;67.95;95112.13;5115358;28;20179;-69
2022/09/22 05:21:47;;;;;;;5.45;5.05;;;;;;;9.80;67.83;95119.25;5114928;28;20198;-69
2022/09/22 05:24:14;;;;;;;6.20;5.70;;;;;;;9.83;68.27;95113.84;5115025;28;20522;-69
2022/09/22 05:26:42;;;;;;;6.15;5.70;;;;;;;9.81;68.12;95116.16;5115586;28;20204;-69
2022/09/22 05:29:09;;;;;;;6.30;5.80;;;;;;;9.84;68.40;95125.66;5114453;28;20232;-69
2022/09/22 05:31:35;;;;;;;6.03;5.55;;;;;;;9.87;68.14;95128.53;5115443;28;20188;-69
2022/09/22 05:34:02;;;;;;;6.10;5.60;;;;;;;9.88;68.37;95121.88;5114148;28;20216;-69
2022/09/22 05:36:29;;;;;;;5.57;5.18;;;;;;;9.93;68.12;95134.63;5097655;28;20200;-69
2022/09/22 05:38:56;;;;;;;5.90;5.50;;;;;;;9.95;68.04;95129.56;5119390;28;20180;-69
2022/09/22 05:41:23;;;;;;;5.63;5.22;;;;;;;10.01;68.60;95130.91;5119038;28;20188;-70
2022/09/22 05:43:51;;;;;;;5.93;5.53;;;;;;;10.05;68.29;95128.25;5118367;28;20192;-69
2022/09/22 05:46:18;;;;;;;5.57;5.07;;;;;;;10.07;67.82;95135.03;5117861;28;20188;-69
2022/09/22 05:48:45;;;;;;;6.43;5.93;;;;;;;10.10;67.69;95133.56;5118222;28;20195;-69
2022/09/22 05:51:11;;;;;;;6.10;5.60;;;;;;;10.14;67.57;95128.94;5118372;28;20191;-69
2022/09/22 05:53:38;;;;;;;6.25;5.65;;;;;;;10.18;67.08;95127.09;5118607;28;20520;-69
2022/09/22 05:56:05;;;;;;;5.10;4.70;;;;;;;10.20;66.86;95132.25;5119084;28;20188;-69
2022/09/22 05:58:32;;;;;;;5.43;5.03;;;;;;;10.21;66.37;95128.38;5118467;28;20608;-69
2022/09/22 06:01:00;;;;;;;5.40;5.00;;;;;;;10.22;66.10;95135.47;5117977;28;20188;-69
2022/09/22 06:03:27;;;;;;;5.60;5.10;;;;;;;10.26;66.44;95139.16;5117857;28;20191;-69
2022/09/22 06:05:54;;;;;;;5.95;5.47;;;;;;;10.27;66.41;95138.81;5118761;28;20191;-69
2022/09/22 06:08:20;;;;;;;5.28;4.88;;;;;;;10.28;66.65;95129.41;5118726;28;20184;-69
2022/09/22 06:10:50;;;;;;;5.95;5.53;;;;;;;10.31;66.14;95136.16;5118585;28;20192;-69
2022/09/22 06:13:17;;;;;;;4.45;4.13;;;;;;;10.32;66.31;95135.00;5117664;28;20739;-69
2022/09/22 06:15:47;;;;;;;5.13;4.63;;;;;;;10.32;66.10;95127.53;5118720;28;20180;-69
2022/09/22 06:18:17;;;;;;;4.95;4.55;;;;;;;10.33;65.70;95139.38;5118242;28;20283;-69
2022/09/22 06:20:44;;;;;;;5.30;4.90;;;;;;;10.32;65.67;95141.31;5118762;28;20177;-69
2022/09/22 06:23:11;;;;;;;4.88;4.57;;;;;;;10.35;66.24;95131.56;5118415;28;20199;-69
2022/09/22 06:25:38;;;;;;;5.13;4.82;;;;;;;10.39;66.36;95140.75;5117347;28;20207;-68
2022/09/22 06:28:06;;;;;;;5.68;5.18;;;;;;;10.42;65.98;95134.53;5117102;28;20188;-69
2022/09/22 06:30:34;;;;;;;5.28;4.88;;;;;;;10.48;66.09;95133.09;5117775;28;20234;-68
2022/09/22 06:33:01;;;;;;;5.72;5.32;;;;;;;10.51;65.91;95132.41;5117885;28;20180;-68
2022/09/22 06:35:35;;;;;;;5.53;5.13;;;;;;;10.52;65.48;95139.53;5118053;28;20180;-69
2022/09/22 06:38:02;;;;;;;5.78;5.28;;;;;;;10.53;66.08;95134.81;5117185;28;20199;-68
2022/09/22 06:40:31;;;;;;;5.03;4.70;;;;;;;10.52;65.90;95133.22;5116925;28;20199;-68
2022/09/22 06:42:58;;;;;;;5.63;5.20;;;;;;;10.54;66.21;95142.75;5117302;28;20269;-68
2022/09/22 06:45:25;;;;;;;5.50;5.00;;;;;;;10.52;66.23;95138.72;5099939;28;20240;-68
2022/09/22 06:47:52;;;;;;;6.20;5.68;;;;;;;10.54;66.29;95139.97;5117033;28;20256;-69
2022/09/22 06:50:19;;;;;;;5.35;4.95;;;;;;;10.57;66.15;95141.25;5117611;28;20177;-68
2022/09/22 06:52:50;;;;;;;6.05;5.50;;;;;;;10.59;66.39;95136.97;5117658;28;20179;-69
2022/09/22 06:55:19;;;;;;;5.78;5.32;;;;;;;10.57;66.18;95139.28;5117766;28;20207;-69
2022/09/22 06:57:46;;;;;;;6.18;5.68;;;;;;;10.60;66.16;95146.03;5116909;28;20295;-68
2022/09/22 07:00:15;;;;;;;5.13;4.72;;;;;;;10.61;65.85;95136.63;5117083;28;20530;-69
2022/09/22 07:02:42;;;;;;;5.43;5.03;;;;;;;10.65;65.67;95142.25;5118088;28;20241;-69
2022/09/22 07:05:09;;;;;;;4.88;4.47;;;;;;;10.59;65.54;95136.97;5116740;28;20235;-69
2022/09/22 07:07:36;;;;;;;5.15;4.75;;;;;;;10.58;65.76;95134.56;5116314;28;20184;-69
2022/09/22 07:10:05;;;;;;;6.60;6.05;;;;;;;10.60;65.54;95144.09;5116553;28;20215;-69
2022/09/22 07:12:32;;;;;;;5.93;5.43;;;;;;;10.58;65.42;95140.88;5116384;28;20199;-69
2022/09/22 07:14:59;;;;;;;5.10;4.70;;;;;;;10.59;65.49;95142.47;5116833;28;20588;-69
2022/09/22 07:17:27;;;;;;;4.90;4.40;;;;;;;10.68;65.39;95141.56;5116958;28;20184;-68
2022/09/22 07:19:55;;;;;;;5.72;5.07;;;;;;;10.77;65.77;95131.16;5116090;28;20203;-69
2022/09/22 07:22:22;;;;;;;4.38;4.03;;;;;;;10.90;65.65;95124.41;5115853;28;20229;-68
2022/09/22 07:24:49;;;;;;;4.93;4.60;;;;;;;11.03;64.99;95136.16;5117050;28;20198;-68
2022/09/22 07:27:25;;;;;;;4.65;4.35;;;;;;;11.02;64.17;95135.38;5116851;28;20191;-68
2022/09/22 07:29:53;;;;;;;5.15;4.65;;;;;;;11.00;63.84;95134.13;5116880;28;20235;-68
2022/09/22 07:32:20;;;;;;;5.00;4.60;;;;;;;10.94;63.80;95130.81;5116547;28;20187;-68
2022/09/22 07:34:47;;;;;;;4.63;4.10;;;;;;;10.99;63.83;95129.75;5116343;28;20291;-68
2022/09/22 07:37:14;;;;;;;5.00;4.50;;;;;;;10.99;63.34;95124.25;5116703;28;20192;-68
2022/09/22 07:39:44;;;;;;;4.57;4.28;;;;;;;11.00;63.34;95126.66;5116128;28;20199;-68
2022/09/22 07:42:10;;;;;;;4.72;4.43;;;;;;;11.08;63.41;95124.88;5115830;28;20187;-68
2022/09/22 07:50:04;;;;;;;3.90;3.60;;;;;;;11.24;62.47;95130.41;5116049;28;20203;-68
2022/09/22 07:52:32;;;;;;;4.90;4.50;;;;;;;11.25;62.32;95130.03;5115679;28;20542;-68
2022/09/22 07:54:59;;;;;;;5.88;4.30;;;;;;;11.33;62.42;95126.31;5116416;28;20268;-68
2022/09/22 07:57:29;;;;;;;4.50;4.10;;;;;;;11.39;62.49;95131.56;5115912;28;20588;-68
2022/09/22 07:59:58;;;;;;;5.05;4.00;;;;;;;11.42;62.54;95128.91;5115521;28;20180;-68
2022/09/22 08:02:26;;;;;;;4.10;3.70;;;;;;;11.50;62.69;95127.91;5115421;28;20191;-68
2022/09/22 08:04:53;;;;;;;4.55;4.25;;;;;;;11.53;61.87;95121.66;5116259;28;20286;-68
2022/09/22 08:07:20;;;;;;;4.03;3.72;;;;;;;11.56;61.84;95126.50;5116336;28;20204;-68
2022/09/22 08:09:46;;;;;;;4.03;3.63;;;;;;;11.55;61.56;95130.41;5115516;28;20527;-69
2022/09/22 08:12:13;;;;;;;3.97;3.67;;;;;;;11.61;61.47;95136.44;5115068;28;20213;-68
2022/09/22 08:14:40;;;;;;;4.40;3.90;;;;;;;11.71;62.05;95126.84;5115234;28;20234;-68
2022/09/22 08:17:11;;;;;;;4.07;3.78;;;;;;;11.80;61.99;95131.00;5115133;28;20203;-68
2022/09/22 08:19:37;;;;;;;3.60;3.33;;;;;;;11.79;60.64;95129.38;5116055;28;20230;-68
2022/09/22 08:22:04;;;;;;;3.75;3.28;;;;;;;11.77;61.01;95130.94;5115886;28;20203;-68
2022/09/22 08:24:31;;;;;;;4.43;4.05;;;;;;;11.77;60.99;95123.44;5115792;28;20194;-68
2022/09/22 08:26:58;;;;;;;3.55;3.25;;;;;;;11.86;60.60;95119.69;5115797;28;20209;-68
2022/09/22 08:29:25;;;;;;;3.97;3.65;;;;;;;12.04;60.75;95120.91;5115227;28;20679;-68
2022/09/22 08:31:52;;;;;;;2.97;2.78;;;;;;;12.28;58.67;95125.38;5115144;28;20290;-68
2022/09/22 08:34:21;;;;;;;2.83;2.63;;;;;;;12.47;56.08;95117.09;5114861;28;20215;-68
2022/09/22 08:36:47;;;;;;;2.80;2.60;;;;;;;12.52;55.58;95119.56;5098232;28;20197;-68
2022/09/22 08:39:15;;;;;;;3.10;2.90;;;;;;;12.48;55.23;95115.91;5115506;28;20604;-68
2022/09/22 08:41:48;;;;;;;3.60;3.30;;;;;;;12.43;55.89;95116.22;5115206;28;20256;-68
2022/09/22 08:44:21;;;;;;;3.72;3.42;;;;;;;12.43;57.05;95109.91;5115767;28;20196;-68
2022/09/22 08:46:50;;;;;;;3.35;3.05;;;;;;;12.51;56.76;95106.91;5114995;28;20204;-68
2022/09/22 08:52:15;;;;;;;3.08;2.88;;;;;;;12.63;56.13;95107.91;5115616;28;20180;-68
2022/09/22 08:54:42;;;;;;;3.95;3.55;;;;;;;12.58;55.93;95106.25;5115747;28;20247;-69
2022/09/22 08:57:27;;;;;;;2.90;2.70;;;;;;;12.51;55.98;95108.88;5114851;28;20611;-69
2022/09/22 08:59:58;;;;;;;3.30;3.00;;;;;;;12.44;56.19;95103.19;5115804;28;20184;-68
2022/09/22 09:02:40;;;;;;;2.60;2.40;;;;;;;12.45;56.86;95102.00;5114580;28;20188;-68
2022/09/22 09:05:40;;;;;;;3.03;2.83;;;;;;;12.50;56.39;95099.78;5115130;28;20244;-69
2022/09/22 09:08:20;;;;;;;2.90;2.70;;;;;;;12.72;56.97;95102.97;5100451;28;20211;-68
2022/09/22 09:10:53;;;;;;;3.90;3.60;;;;;;;13.00;56.46;95102.72;5115749;28;20196;-69
2022/09/22 09:13:44;;;;;;;2.70;2.50;;;;;;;13.27;54.29;95098.06;5117813;28;20642;-68
2022/09/22 09:16:29;;;;;;;2.70;2.50;;;;;;;13.43;51.86;95092.38;5116172;28;20242;-68
2022/09/22 09:19:14;;;;;;;2.53;2.38;;;;;;;13.67;51.65;95088.44;5118171;28;20608;-68
2022/09/22 09:21:47;;;;;;;2.40;2.30;;;;;;;13.83;51.06;95091.81;5119453;28;20192;-69
2022/09/22 09:24:16;;;;;;;2.60;2.40;;;;;;;13.94;51.12;95091.97;5118314;28;20204;-69
2022/09/22 09:26:43;;;;;;;2.53;2.33;;;;;;;14.10;51.90;95081.53;5101978;28;20210;-69
2022/09/22 09:29:15;;;;;;;2.70;2.50;;;;;;;14.25;50.98;95079.75;5118590;28;20243;-68
2022/09/22 09:31:45;;;;;;;1.90;1.80;;;;;;;14.33;49.77;95084.22;5119148;28;20187;-68
2022/09/22 09:34:14;;;;;;;1.90;1.80;;;;;;;14.35;48.53;95073.53;5118088;28;20192;-68
2022/09/22 09:36:45;;;;;;;1.85;1.67;;;;;;;14.41;49.23;95066.47;5119131;28;20192;-69
2022/09/22 09:39:14;;;;;;;2.90;2.15;;;;;;;14.59;49.74;95066.72;5118932;28;20226;-69
2022/09/22 09:41:41;;;;;;;3.70;3.40;;;;;;;14.76;48.49;95070.88;5118569;28;20180;-69
2022/09/22 09:44:14;;;;;;;2.20;2.10;;;;;;;14.94;48.90;95068.31;5118989;28;20261;-69
2022/09/22 09:46:48;;;;;;;2.20;2.10;;;;;;;14.86;48.81;95066.63;5117815;28;20203;-68
2022/09/22 09:49:16;;;;;;;5.30;3.83;;;;;;;14.70;49.25;95075.16;5118145;28;20211;-69
2022/09/22 09:51:45;;;;;;;2.97;2.67;;;;;;;14.59;49.27;95079.81;5117713;28;20188;-69
2022/09/22 09:54:13;;;;;;;2.45;2.35;;;;;;;14.42;48.53;95073.63;5118563;28;20203;-69
2022/09/22 09:57:02;;;;;;;1.92;1.83;;;;;;;14.23;48.47;95071.00;5118739;28;20199;-70
2022/09/22 10:02:14;;;;;;;2.97;2.75;;;;;;;14.03;50.34;95073.13;5118475;28;20172;-69
2022/09/22 10:04:49;;;;;;;2.90;2.70;;;;;;;14.24;51.29;95071.81;5118648;28;20192;-69
2022/09/22 10:07:18;;;;;;;1.98;1.88;;;;;;;14.50;49.48;95066.22;5118595;28;20194;-70
2022/09/22 10:09:47;;;;;;;2.08;1.98;;;;;;;14.71;48.87;95062.91;5118828;28;20199;-69
2022/09/22 10:12:24;;;;;;;2.05;1.90;;;;;;;14.87;48.67;95057.13;5117716;28;20253;-69
2022/09/22 10:14:51;;;;;;;2.17;2.08;;;;;;;15.09;48.85;95050.59;5118775;28;20215;-69
2022/09/22 10:17:21;;;;;;;1.75;1.65;;;;;;;15.26;47.01;95045.59;5117745;28;20196;-69
2022/09/22 10:19:49;;;;;;;2.00;1.90;;;;;;;15.36;45.36;95050.44;5117661;28;20228;-69
2022/09/22 10:22:24;;;;;;;1.70;1.60;;;;;;;15.25;45.90;95050.34;5117421;28;20200;-70
2022/09/22 10:24:58;;;;;;;2.95;1.83;;;;;;;15.14;44.77;95049.44;5118293;28;20274;-68
2022/09/22 10:27:27;;;;;;;2.00;1.90;;;;;;;15.10;45.40;95054.16;5118397;28;20183;-69
2022/09/22 10:30:28;;;;;;;3.10;2.88;;;;;;;15.32;45.49;95046.81;5118325;28;20231;-69
2022/09/22 10:33:20;;;;;;;2.05;1.95;;;;;;;15.54;44.50;95045.84;5035897;28;20190;-69
2022/09/22 10:35:54;;;;;;;2.00;1.90;;;;;;;15.57;45.25;95041.47;5005055;28;20223;-69
2022/09/22 10:38:23;;;;;;;1.95;1.85;;;;;;;15.51;45.81;95037.47;5019061;28;20204;-69
2022/09/22 10:40:55;;;;;;;2.40;2.20;;;;;;;15.44;46.74;95038.22;5035378;28;20194;-69
2022/09/22 10:43:42;;;;;;;1.83;1.73;;;;;;;15.48;45.76;95039.03;5035571;28;20206;-69
2022/09/22 10:46:33;;;;;;;2.42;2.22;;;;;;;15.69;45.11;95032.88;5019010;28;20293;-69
2022/09/22 10:49:06;;;;;;;2.05;1.95;;;;;;;15.86;43.77;95028.59;5019476;28;20225;-69
2022/09/22 10:51:55;;;;;;;2.00;1.90;;;;;;;15.97;42.70;95026.66;5019085;28;20289;-68
2022/09/22 10:54:45;;;;;;;2.20;2.10;;;;;;;16.06;43.26;95026.34;5018977;28;20210;-68
2022/09/22 10:57:20;;;;;;;1.98;1.88;;;;;;;16.19;42.98;95026.78;5018920;28;20206;-68
2022/09/22 11:00:09;;;;;;;1.85;1.75;;;;;;;16.29;43.42;95020.47;5018934;28;20267;-69
2022/09/22 11:03:00;;;;;;;1.40;1.40;;;;;;;16.33;41.90;95021.28;5019152;28;20276;-69
2022/09/22 11:14:09;;;;;;;1.90;1.80;;;;;;;16.54;41.91;95015.81;5116686;28;20286;-69
2022/09/22 11:17:05;;;;;;;2.13;1.50;;;;;;;16.56;42.38;95007.06;5099402;28;20223;-69
2022/09/22 11:19:49;;;;;;;1.63;1.48;;;;;;;16.71;42.76;95002.34;5114796;28;20204;-69
2022/09/22 11:22:33;;;;;;;1.55;1.45;;;;;;;16.77;40.79;95001.56;5116183;28;20206;-69
2022/09/22 11:25:15;;;;;;;1.40;1.30;;;;;;;16.94;41.51;94997.22;5116078;28;20198;-68
2022/09/22 11:27:54;;;;;;;1.65;1.55;;;;;;;16.88;42.17;95004.38;5117274;28;20194;-69
2022/09/22 11:30:21;;;;;;;2.35;1.50;;;;;;;16.76;40.82;95004.75;5115597;28;20234;-69
2022/09/22 11:33:03;;;;;;;1.77;1.67;;;;;;;16.54;41.03;95001.09;5117253;28;20195;-68
2022/09/22 11:35:58;;;;;;;1.65;1.55;;;;;;;16.31;41.78;94998.63;5115888;28;20214;-69
2022/09/22 11:38:43;;;;;;;2.10;1.90;;;;;;;16.10;41.95;95000.13;5116110;28;20191;-68
2022/09/22 11:41:20;;;;;;;2.00;1.77;;;;;;;15.96;43.52;95004.81;5116253;28;20187;-68
2022/09/22 11:43:59;;;;;;;3.47;2.13;;;;;;;15.73;45.00;95005.09;5116480;28;20184;-68
2022/09/22 11:46:33;;;;;;;2.10;1.90;;;;;;;15.58;45.42;94999.41;5116087;28;20180;-68
2022/09/22 11:49:08;;;;;;;2.10;1.85;;;;;;;15.43;46.83;94994.09;5115161;28;20207;-68
2022/09/22 11:51:52;;;;;;;2.25;2.10;;;;;;;15.31;46.88;94992.44;5116181;28;20183;-68
2022/09/22 11:54:29;;;;;;;2.33;2.13;;;;;;;15.17;47.13;94991.13;5116175;28;20187;-68
2022/09/22 11:57:00;;;;;;;1.92;1.77;;;;;;;15.10;47.37;94993.84;5115436;28;20207;-68
2022/09/22 11:59:35;;;;;;;2.40;2.20;;;;;;;15.03;48.07;94993.81;5116137;28;20196;-67
2022/09/22 12:02:05;;;;;;;2.38;1.90;;;;;;;14.99;48.39;94989.38;5115277;28;20260;-67
2022/09/22 12:04:36;;;;;;;2.15;1.95;;;;;;;14.97;48.34;94997.31;5115170;28;20249;-67
2022/09/22 12:07:08;;;;;;;2.10;1.98;;;;;;;14.91;47.96;94994.88;5116160;28;20223;-67
2022/09/22 12:09:37;;;;;;;3.78;2.13;;;;;;;15.00;49.02;94988.22;5115672;28;20198;-67
2022/09/22 12:12:06;;;;;;;4.75;2.70;;;;;;;15.24;48.29;94993.16;5115269;28;20198;-69